Time,TemperatureF,DewpointF,PressureIn,WindDirection,WindDirectionDegrees,WindSpeedMPH,WindSpeedGustMPH,Humidity,HourlyPrecipIn,Conditions,Clouds,dailyrainin,SoftwareType,DateUTC
2013-02-18 00:02:00,23.0,16.0,30.23,West,281,0.0,-999.0,74,-99.99,,,-99.99,,2013-02-18 05:02:00,
2013-02-18 00:11:00,23.0,16.0,30.23,West,281,0.0,-999.0,74,-99.99,,,-99.99,,2013-02-18 05:11:00,
2013-02-18 00:21:00,23.0,16.0,30.22,West,281,0.0,-999.0,74,-99.99,,,-99.99,,2013-02-18 05:21:00,
2013-02-18 00:32:00,25.0,17.0,30.22,West,281,1.0,-999.0,71,-99.99,,,-99.99,,2013-02-18 05:32:00,
2013-02-18 00:42:00,25.0,17.0,30.22,West,281,1.0,-999.0,71,-99.99,,,-99.99,,2013-02-18 05:42:00,
2013-02-18 00:52:00,24.0,16.0,30.22,West,281,0.0,-999.0,71,-99.99,,,-99.99,,2013-02-18 05:52:00,
2013-02-18 01:02:00,24.0,16.0,30.22,West,281,0.0,-999.0,71,-99.99,,,-99.99,,2013-02-18 06:02:00,
2013-02-18 01:11:00,24.0,16.0,30.22,West,281,0.0,-999.0,71,-99.99,,,-99.99,,2013-02-18 06:11:00,
2013-02-18 01:22:00,23.0,16.0,30.22,West,281,0.0,-999.0,73,-99.99,,,-99.99,,2013-02-18 06:22:00,
2013-02-18 01:32:00,23.0,16.0,30.23,West,281,0.0,-999.0,74,-99.99,,,-99.99,,2013-02-18 06:32:00,
2013-02-18 01:42:00,22.0,16.0,30.22,West,281,0.0,-999.0,76,-99.99,,,-99.99,,2013-02-18 06:42:00,
2013-02-18 01:52:00,22.0,16.0,30.22,West,281,0.0,-999.0,76,-99.99,,,-99.99,,2013-02-18 06:52:00,
2013-02-18 02:01:00,22.0,16.0,30.23,West,281,0.0,-999.0,76,-99.99,,,-99.99,,2013-02-18 07:01:00,
2013-02-18 02:11:00,22.0,16.0,30.23,West,281,0.0,-999.0,76,-99.99,,,-99.99,,2013-02-18 07:11:00,
2013-02-18 02:22:00,22.0,16.0,30.23,West,281,0.0,-999.0,77,-99.99,,,-99.99,,2013-02-18 07:22:00,
2013-02-18 02:32:00,22.0,16.0,30.23,West,281,1.0,-999.0,76,-99.99,,,-99.99,,2013-02-18 07:32:00,
2013-02-18 02:42:00,22.0,16.0,30.23,West,281,1.0,-999.0,76,-99.99,,,-99.99,,2013-02-18 07:42:00,
2013-02-18 02:52:00,23.0,16.0,30.22,West,281,0.0,-999.0,75,-99.99,,,-99.99,,2013-02-18 07:52:00,
2013-02-18 03:01:00,23.0,16.0,30.22,West,281,0.0,-999.0,74,-99.99,,,-99.99,,2013-02-18 08:01:00,
2013-02-18 03:11:00,23.0,16.0,30.22,West,281,0.0,-999.0,74,-99.99,,,-99.99,,2013-02-18 08:11:00,
2013-02-18 03:21:00,24.0,17.0,30.22,West,281,0.0,-999.0,73,-99.99,,,-99.99,,2013-02-18 08:21:00,
2013-02-18 03:32:00,24.0,16.0,30.22,West,281,0.0,-999.0,71,-99.99,,,-99.99,,2013-02-18 08:32:00,
2013-02-18 03:42:00,24.0,16.0,30.22,West,281,0.0,-999.0,71,-99.99,,,-99.99,,2013-02-18 08:42:00,
2013-02-18 03:52:00,25.0,16.0,30.21,SW,221,2.0,-999.0,67,-99.99,,,-99.99,,2013-02-18 08:52:00,
2013-02-18 04:03:00,25.0,16.0,30.21,SE,130,2.0,-999.0,67,-99.99,,,-99.99,,2013-02-18 09:03:00,
2013-02-18 04:11:00,25.0,16.0,30.21,SE,130,2.0,-999.0,67,-99.99,,,-99.99,,2013-02-18 09:11:00,
2013-02-18 04:22:00,25.0,16.0,30.21,SE,130,2.0,-999.0,67,-99.99,,,-99.99,,2013-02-18 09:22:00,
2013-02-18 04:32:00,25.0,16.0,30.20,SE,130,1.0,-999.0,68,-99.99,,,-99.99,,2013-02-18 09:32:00,
2013-02-18 04:42:00,25.0,16.0,30.20,SE,130,1.0,-999.0,68,-99.99,,,-99.99,,2013-02-18 09:42:00,
2013-02-18 04:52:00,25.0,16.0,30.20,SE,130,0.0,-999.0,68,-99.99,,,-99.99,,2013-02-18 09:52:00,
2013-02-18 05:01:00,25.0,16.0,30.20,SE,130,1.0,-999.0,67,-99.99,,,-99.99,,2013-02-18 10:01:00,
2013-02-18 05:11:00,25.0,16.0,30.20,SE,130,1.0,-999.0,67,-99.99,,,-99.99,,2013-02-18 10:11:00,
2013-02-18 05:22:00,25.0,16.0,30.20,SE,131,1.0,-999.0,67,-99.99,,,-99.99,,2013-02-18 10:22:00,
2013-02-18 05:32:00,25.0,16.0,30.20,SE,133,2.0,-999.0,67,-99.99,,,-99.99,,2013-02-18 10:32:00,
2013-02-18 05:42:00,25.0,16.0,30.20,SE,133,2.0,-999.0,67,-99.99,,,-99.99,,2013-02-18 10:42:00,
2013-02-18 05:53:00,25.0,16.0,30.20,SE,136,2.0,-999.0,68,-99.99,,,-99.99,,2013-02-18 10:53:00,
2013-02-18 06:01:00,25.0,16.0,30.20,SE,137,1.0,-999.0,67,-99.99,,,-99.99,,2013-02-18 11:01:00,
2013-02-18 06:11:00,25.0,16.0,30.20,SE,137,1.0,-999.0,67,-99.99,,,-99.99,,2013-02-18 11:11:00,
2013-02-18 06:22:00,26.0,16.0,30.19,SE,138,2.0,-999.0,66,-99.99,,,-99.99,,2013-02-18 11:22:00,
2013-02-18 06:32:00,26.0,16.0,30.19,SE,140,1.0,-999.0,66,-99.99,,,-99.99,,2013-02-18 11:32:00,
2013-02-18 06:42:00,26.0,16.0,30.19,SE,140,1.0,-999.0,66,-99.99,,,-99.99,,2013-02-18 11:42:00,
2013-02-18 06:53:00,26.0,16.0,30.19,SE,140,0.0,-999.0,66,-99.99,,,-99.99,,2013-02-18 11:53:00,
2013-02-18 07:02:00,26.0,16.0,30.19,SE,140,1.0,-999.0,66,-99.99,,,-99.99,,2013-02-18 12:02:00,
2013-02-18 07:12:00,26.0,16.0,30.19,SE,140,1.0,-999.0,66,-99.99,,,-99.99,,2013-02-18 12:12:00,
2013-02-18 07:32:00,26.0,16.0,30.18,SE,140,0.0,-999.0,66,-99.99,,,-99.99,,2013-02-18 12:32:00,
2013-02-18 07:42:00,26.0,16.0,30.18,SE,140,0.0,-999.0,66,-99.99,,,-99.99,,2013-02-18 12:42:00,
2013-02-18 07:53:00,27.0,17.0,30.17,SE,140,1.0,-999.0,66,-99.99,,,-99.99,,2013-02-18 12:53:00,
2013-02-18 08:03:00,27.0,17.0,30.17,SE,140,2.0,-999.0,66,-99.99,,,-99.99,,2013-02-18 13:03:00,
2013-02-18 08:12:00,27.0,17.0,30.17,SE,140,2.0,-999.0,66,-99.99,,,-99.99,,2013-02-18 13:12:00,
2013-02-18 08:23:00,27.0,17.0,30.17,SE,140,2.0,-999.0,66,-99.99,,,-99.99,,2013-02-18 13:23:00,
2013-02-18 08:32:00,29.0,18.0,30.17,SE,140,1.0,-999.0,63,-99.99,,,-99.99,,2013-02-18 13:32:00,
2013-02-18 08:42:00,29.0,18.0,30.17,SE,140,1.0,-999.0,63,-99.99,,,-99.99,,2013-02-18 13:42:00,
2013-02-18 08:53:00,31.0,19.0,30.17,SE,140,1.0,-999.0,61,-99.99,,,-99.99,,2013-02-18 13:53:00,
2013-02-18 09:02:00,33.0,22.0,30.17,SE,140,0.0,-999.0,63,-99.99,,,-99.99,,2013-02-18 14:02:00,
2013-02-18 09:11:00,33.0,22.0,30.17,SE,140,0.0,-999.0,63,-99.99,,,-99.99,,2013-02-18 14:11:00,
2013-02-18 09:33:00,40.0,24.0,30.17,SSE,157,2.0,-999.0,52,-99.99,,,-99.99,,2013-02-18 14:33:00,
2013-02-18 09:42:00,40.0,24.0,30.17,SSE,157,2.0,-999.0,52,-99.99,,,-99.99,,2013-02-18 14:42:00,
2013-02-18 09:53:00,44.0,24.0,30.17,SW,224,4.0,-999.0,45,-99.99,,,-99.99,,2013-02-18 14:53:00,
2013-02-18 10:02:00,46.0,25.0,30.16,South,190,7.0,-999.0,44,-99.99,,,-99.99,,2013-02-18 15:02:00,
2013-02-18 10:22:00,46.0,25.0,30.16,SSW,211,7.0,-999.0,43,-99.99,,,-99.99,,2013-02-18 15:22:00,
2013-02-18 10:32:00,47.0,25.0,30.16,South,183,6.0,-999.0,41,-99.99,,,-99.99,,2013-02-18 15:32:00,
2013-02-18 10:53:00,48.0,27.0,30.15,SSW,213,6.0,-999.0,43,-99.99,,,-99.99,,2013-02-18 15:53:00,
2013-02-18 11:03:00,49.0,27.0,30.15,SW,221,7.0,-999.0,43,-99.99,,,-99.99,,2013-02-18 16:03:00,
2013-02-18 11:22:00,50.0,29.0,30.14,WSW,242,7.0,-999.0,44,-99.99,,,-99.99,,2013-02-18 16:22:00,
2013-02-18 11:32:00,51.0,30.0,30.14,SW,219,5.0,-999.0,44,-99.99,,,-99.99,,2013-02-18 16:32:00,
2013-02-18 11:42:00,51.0,30.0,30.14,SW,219,5.0,-999.0,44,-99.99,,,-99.99,,2013-02-18 16:42:00,
2013-02-18 11:53:00,52.0,31.0,30.14,South,186,7.0,-999.0,45,-99.99,,,-99.99,,2013-02-18 16:53:00,
2013-02-18 12:04:00,52.0,31.0,30.13,SSW,200,6.0,-999.0,44,-99.99,,,-99.99,,2013-02-18 17:04:00,
2013-02-18 12:12:00,52.0,31.0,30.13,SSW,200,6.0,-999.0,44,-99.99,,,-99.99,,2013-02-18 17:12:00,
2013-02-18 12:22:00,53.0,32.0,30.12,SSW,196,6.0,-999.0,45,-99.99,,,-99.99,,2013-02-18 17:22:00,
2013-02-18 12:32:00,55.0,34.0,30.11,South,190,5.0,-999.0,45,-99.99,,,-99.99,,2013-02-18 17:32:00,
2013-02-18 12:42:00,55.0,34.0,30.11,South,190,5.0,-999.0,45,-99.99,,,-99.99,,2013-02-18 17:42:00,
2013-02-18 12:53:00,55.0,34.0,30.11,South,190,5.0,-999.0,45,-99.99,,,-99.99,,2013-02-18 17:53:00,
2013-02-18 13:02:00,57.0,36.0,30.09,SSW,198,6.0,-999.0,45,-99.99,,,-99.99,,2013-02-18 18:02:00,
2013-02-18 13:12:00,57.0,36.0,30.09,SSW,198,6.0,-999.0,45,-99.99,,,-99.99,,2013-02-18 18:12:00,
2013-02-18 13:23:00,57.0,35.0,30.08,WSW,238,7.0,-999.0,43,-99.99,,,-99.99,,2013-02-18 18:23:00,
2013-02-18 13:33:00,57.0,35.0,30.06,SSE,147,7.0,-999.0,43,-99.99,,,-99.99,,2013-02-18 18:33:00,
2013-02-18 13:42:00,57.0,35.0,30.06,SSE,147,7.0,-999.0,43,-99.99,,,-99.99,,2013-02-18 18:42:00,
2013-02-18 13:53:00,57.0,34.0,30.05,SW,220,8.0,-999.0,42,-99.99,,,-99.99,,2013-02-18 18:53:00,
2013-02-18 14:03:00,59.0,36.0,30.05,WSW,249,5.0,-999.0,42,-99.99,,,-99.99,,2013-02-18 19:03:00,
2013-02-18 14:12:00,59.0,36.0,30.05,WSW,249,5.0,-999.0,42,-99.99,,,-99.99,,2013-02-18 19:12:00,
2013-02-18 14:22:00,59.0,37.0,30.03,SW,218,8.0,-999.0,43,-99.99,,,-99.99,,2013-02-18 19:22:00,
2013-02-18 14:33:00,58.0,35.0,30.03,East,97,8.0,-999.0,42,-99.99,,,-99.99,,2013-02-18 19:33:00,
2013-02-18 14:42:00,58.0,35.0,30.03,East,97,8.0,-999.0,42,-99.99,,,-99.99,,2013-02-18 19:42:00,
2013-02-18 14:53:00,58.0,35.0,30.03,East,97,8.0,-999.0,42,-99.99,,,-99.99,,2013-02-18 19:53:00,
2013-02-18 15:02:00,60.0,36.0,30.02,SSW,192,6.0,-999.0,41,-99.99,,,-99.99,,2013-02-18 20:02:00,
2013-02-18 15:12:00,60.0,36.0,30.02,SSW,192,6.0,-999.0,41,-99.99,,,-99.99,,2013-02-18 20:12:00,
2013-02-18 15:23:00,60.0,34.0,30.01,SW,218,7.0,-999.0,38,-99.99,,,-99.99,,2013-02-18 20:23:00,
2013-02-18 15:33:00,60.0,34.0,30.01,WSW,257,6.0,-999.0,38,-99.99,,,-99.99,,2013-02-18 20:33:00,
2013-02-18 15:42:00,60.0,34.0,30.01,WSW,257,6.0,-999.0,38,-99.99,,,-99.99,,2013-02-18 20:42:00,
2013-02-18 15:53:00,60.0,32.0,30.00,South,186,8.0,-999.0,35,-99.99,,,-99.99,,2013-02-18 20:53:00,
2013-02-18 16:03:00,60.0,32.0,30.00,South,186,8.0,-999.0,35,-99.99,,,-99.99,,2013-02-18 21:03:00,
2013-02-18 16:12:00,60.0,32.0,30.00,South,186,8.0,-999.0,35,-99.99,,,-99.99,,2013-02-18 21:12:00,
2013-02-18 16:22:00,60.0,32.0,29.99,SSW,209,8.0,-999.0,35,-99.99,,,-99.99,,2013-02-18 21:22:00,
2013-02-18 16:32:00,60.0,32.0,29.98,SSW,212,8.0,-999.0,34,-99.99,,,-99.99,,2013-02-18 21:32:00,
2013-02-18 16:43:00,60.0,32.0,29.98,SSW,212,8.0,-999.0,34,-99.99,,,-99.99,,2013-02-18 21:43:00,
2013-02-18 16:53:00,60.0,32.0,29.98,SSW,205,3.0,-999.0,34,-99.99,,,-99.99,,2013-02-18 21:53:00,
2013-02-18 17:03:00,59.0,31.0,29.96,South,189,4.0,-999.0,34,-99.99,,,-99.99,,2013-02-18 22:03:00,
2013-02-18 17:12:00,58.0,30.0,29.95,SE,135,5.0,-999.0,34,-99.99,,,-99.99,,2013-02-18 22:12:00,
2013-02-18 17:22:00,58.0,30.0,29.95,SE,135,5.0,-999.0,34,-99.99,,,-99.99,,2013-02-18 22:22:00,
2013-02-18 17:33:00,58.0,30.0,29.93,SSE,153,5.0,-999.0,34,-99.99,,,-99.99,,2013-02-18 22:33:00,
2013-02-18 17:43:00,58.0,30.0,29.93,SSE,153,5.0,-999.0,34,-99.99,,,-99.99,,2013-02-18 22:43:00,
2013-02-18 17:53:00,58.0,29.0,29.93,SSE,148,3.0,-999.0,33,-99.99,,,-99.99,,2013-02-18 22:53:00,
2013-02-18 18:02:00,58.0,29.0,29.93,SSW,201,5.0,-999.0,33,-99.99,,,-99.99,,2013-02-18 23:02:00,
2013-02-18 18:12:00,58.0,29.0,29.93,SSW,201,5.0,-999.0,33,-99.99,,,-99.99,,2013-02-18 23:12:00,
2013-02-18 18:23:00,57.0,29.0,29.93,SSW,210,4.0,-999.0,34,-99.99,,,-99.99,,2013-02-18 23:23:00,
2013-02-18 18:33:00,56.0,29.0,29.92,South,169,4.0,-999.0,35,-99.99,,,-99.99,,2013-02-18 23:33:00,
2013-02-18 18:43:00,56.0,29.0,29.92,South,169,4.0,-999.0,35,-99.99,,,-99.99,,2013-02-18 23:43:00,
2013-02-18 18:53:00,56.0,29.0,29.92,SSW,197,7.0,-999.0,35,-99.99,,,-99.99,,2013-02-18 23:53:00,
2013-02-18 19:03:00,56.0,29.0,29.93,South,177,4.0,-999.0,35,-99.99,,,-99.99,,2013-02-19 00:03:00,
2013-02-18 19:12:00,56.0,29.0,29.93,South,177,4.0,-999.0,35,-99.99,,,-99.99,,2013-02-19 00:12:00,
2013-02-18 19:22:00,55.0,29.0,29.93,South,182,4.0,-999.0,36,-99.99,,,-99.99,,2013-02-19 00:22:00,
2013-02-18 19:34:00,55.0,29.0,29.92,South,183,7.0,-999.0,36,-99.99,,,-99.99,,2013-02-19 00:34:00,
2013-02-18 19:43:00,55.0,29.0,29.92,South,183,7.0,-999.0,36,-99.99,,,-99.99,,2013-02-19 00:43:00,
2013-02-18 19:55:00,55.0,29.0,29.91,SW,227,6.0,-999.0,36,-99.99,,,-99.99,,2013-02-19 00:55:00,
2013-02-18 20:03:00,55.0,29.0,29.91,SSE,167,5.0,-999.0,37,-99.99,,,-99.99,,2013-02-19 01:03:00,
2013-02-18 20:14:00,55.0,29.0,29.91,SSE,167,5.0,-999.0,37,-99.99,,,-99.99,,2013-02-19 01:14:00,
2013-02-18 20:24:00,55.0,29.0,29.90,South,189,7.0,-999.0,36,-99.99,,,-99.99,,2013-02-19 01:24:00,
2013-02-18 20:34:00,56.0,29.0,29.89,South,181,7.0,-999.0,35,-99.99,,,-99.99,,2013-02-19 01:34:00,
2013-02-18 20:44:00,56.0,29.0,29.89,South,181,7.0,-999.0,35,-99.99,,,-99.99,,2013-02-19 01:44:00,
2013-02-18 20:56:00,56.0,29.0,29.88,SSW,213,8.0,-999.0,35,-99.99,,,-99.99,,2013-02-19 01:56:00,
2013-02-18 21:03:00,55.0,28.0,29.88,SSW,194,6.0,-999.0,35,-99.99,,,-99.99,,2013-02-19 02:03:00,
2013-02-18 21:14:00,55.0,28.0,29.88,SSW,194,6.0,-999.0,35,-99.99,,,-99.99,,2013-02-19 02:14:00,
2013-02-18 21:23:00,55.0,28.0,29.86,South,191,5.0,-999.0,35,-99.99,,,-99.99,,2013-02-19 02:23:00,
2013-02-18 21:34:00,55.0,29.0,29.85,SE,144,4.0,-999.0,36,-99.99,,,-99.99,,2013-02-19 02:34:00,
2013-02-18 21:43:00,55.0,29.0,29.85,SE,144,4.0,-999.0,36,-99.99,,,-99.99,,2013-02-19 02:43:00,
2013-02-18 21:55:00,54.0,28.0,29.83,South,190,5.0,-999.0,36,-99.99,,,-99.99,,2013-02-19 02:55:00,
2013-02-18 22:06:00,54.0,28.0,29.83,SE,136,4.0,-999.0,37,-99.99,,,-99.99,,2013-02-19 03:06:00,
2013-02-18 22:24:00,53.0,28.0,29.82,SSE,148,5.0,-999.0,38,-99.99,,,-99.99,,2013-02-19 03:24:00,
2013-02-18 22:34:00,54.0,29.0,29.82,SSW,211,4.0,-999.0,38,-99.99,,,-99.99,,2013-02-19 03:34:00,
2013-02-18 22:44:00,54.0,29.0,29.82,SSW,211,4.0,-999.0,38,-99.99,,,-99.99,,2013-02-19 03:44:00,
2013-02-18 22:55:00,54.0,28.0,29.81,SSW,207,7.0,-999.0,36,-99.99,,,-99.99,,2013-02-19 03:55:00,
2013-02-18 23:02:00,55.0,29.0,29.80,SSE,167,9.0,-999.0,36,-99.99,,,-99.99,,2013-02-19 04:02:00,
2013-02-18 23:14:00,55.0,29.0,29.80,SSE,167,9.0,-999.0,36,-99.99,,,-99.99,,2013-02-19 04:14:00,
2013-02-18 23:23:00,55.0,29.0,29.80,SSE,167,9.0,-999.0,36,-99.99,,,-99.99,,2013-02-19 04:23:00,
2013-02-18 23:33:00,55.0,27.0,29.80,SW,231,6.0,-999.0,34,-99.99,,,-99.99,,2013-02-19 04:33:00,
2013-02-18 23:44:00,55.0,27.0,29.80,SW,231,6.0,-999.0,34,-99.99,,,-99.99,,2013-02-19 04:44:00,
2013-02-18 23:53:00,55.0,27.0,29.80,SW,231,6.0,-999.0,34,-99.99,,,-99.99,,2013-02-19 04:53:00,